Belton, SC

6:39 AM EST on March 05, 2015 (GMT -0500)
Broadway Lake Area | Change Station
CLOSE
Current Station
Personal Weather Station
Location: Anderson, SC
Elevation: 784 ft
Nearby Weather Stations

Elev 784 ft 34.48 °N, 82.60 °W | Updated 5 seconds ago

Overcast
Overcast
65.2 °F
Feels Like 65.2 °F
N
10.0
Wind Variable Wind from SSW
Gusts 24.0 mph

Today
High -- | Low -- °F
--% Chance of Precip.
Yesterday
High -- | Low -- °F
Precip. -- in
6:54 AM 6:29 PM
Full, 100% visible
Pressure 29.85 in
Visibility 5.0 miles
Clouds Mostly Cloudy 700 ft
Overcast 1100 ft
Dew Point 64 °F
Humidity 95%
Rainfall in
Snow Depth Not available.
UV 0 out of 12
Pollen 7.90 out of 12
Air Quality Not available.
Flu Activity Not available.
METAR KAND 051056Z AUTO 21009KT 5SM -RA BR BKN007 OVC011 18/17 A2986 RMK AO2 CIG 005V010 SLP106 P0008 T01780172

More Conditions Fewer Conditions

Pressure 29.85 in
Visibility 5.0 miles
Clouds Mostly Cloudy 700 ft
Overcast 1100 ft
Dew Point 64 °F
Humidity 95%
Rainfall in
Snow Depth Not available.
UV 0 out of 12
Pollen 7.90 out of 12
Air Quality Not available.
Flu Activity Not available.
METAR KAND 051056Z AUTO 21009KT 5SM -RA BR BKN007 OVC011 18/17 A2986 RMK AO2 CIG 005V010 SLP106 P0008 T01780172

More Conditions Fewer Conditions

10-Day Weather Forecast

Almanac

Astronomy

Mar. 05, 2015 Rise Set
Actual Time
Civil Twilight
Nautical Twilight
Astronomical Twilight
Moon
Length of Visible Light
Length of Day
Tomorrow will be .
, % of the Moon is Illuminated

Today's Extremes

State Highs State Lows

Community

WunderPhotos

Upload Photos

1,802,716 photos uploaded!

WunderBlogs® & News

Nearby

Air Quality

  Air Quality AQ Index Pollutant
Not available.

Snow Depth

Station Depth Elevation

Earthquake Activity

City Distance Mag. Time & Date
Minimum magnitude displayed is 2.5.

Coastal Water Temperatures

Place Temperature

Nearby Weather Stations